sensor_id;sensor_type;location;lat;lon;timestamp;P1;durP1;ratioP1;P2;durP2;ratioP2
54935;SDS011;40838;50.676;7.838;2023-02-02T00:00:51;22.77;;;7.20;;
54935;SDS011;40838;50.676;7.838;2023-02-02T00:03:18;20.08;;;7.15;;
54935;SDS011;40838;50.676;7.838;2023-02-02T00:05:45;23.77;;;8.35;;
54935;SDS011;40838;50.676;7.838;2023-02-02T00:08:31;20.27;;;6.57;;
54935;SDS011;40838;50.676;7.838;2023-02-02T00:16:35;22.85;;;7.30;;
54935;SDS011;40838;50.676;7.838;2023-02-02T00:19:06;22.13;;;8.00;;
54935;SDS011;40838;50.676;7.838;2023-02-02T00:21:45;24.45;;;8.88;;
54935;SDS011;40838;50.676;7.838;2023-02-02T00:24:32;28.30;;;7.22;;
54935;SDS011;40838;50.676;7.838;2023-02-02T00:27:03;30.17;;;7.88;;
54935;SDS011;40838;50.676;7.838;2023-02-02T00:29:43;29.75;;;8.38;;
54935;SDS011;40838;50.676;7.838;2023-02-02T00:32:18;23.17;;;7.15;;
54935;SDS011;40838;50.676;7.838;2023-02-02T00:34:44;34.88;;;9.25;;
54935;SDS011;40838;50.676;7.838;2023-02-02T00:37:31;23.02;;;6.95;;
54935;SDS011;40838;50.676;7.838;2023-02-02T00:40:05;18.52;;;8.07;;
54935;SDS011;40838;50.676;7.838;2023-02-02T00:45:33;18.05;;;6.85;;
54935;SDS011;40838;50.676;7.838;2023-02-02T00:47:59;20.23;;;8.27;;
54935;SDS011;40838;50.676;7.838;2023-02-02T00:50:26;30.15;;;7.28;;
54935;SDS011;40838;50.676;7.838;2023-02-02T00:52:54;19.63;;;7.93;;
54935;SDS011;40838;50.676;7.838;2023-02-02T00:55:37;31.23;;;8.98;;
54935;SDS011;40838;50.676;7.838;2023-02-02T00:58:06;39.53;;;9.20;;
54935;SDS011;40838;50.676;7.838;2023-02-02T01:00:51;21.27;;;8.43;;
54935;SDS011;40838;50.676;7.838;2023-02-02T01:03:39;18.00;;;8.95;;
54935;SDS011;40838;50.676;7.838;2023-02-02T01:06:27;26.05;;;8.10;;
54935;SDS011;40838;50.676;7.838;2023-02-02T01:08:54;29.40;;;9.20;;
54935;SDS011;40838;50.676;7.838;2023-02-02T01:11:29;28.45;;;9.43;;
54935;SDS011;40838;50.676;7.838;2023-02-02T01:13:57;23.90;;;8.40;;
54935;SDS011;40838;50.676;7.838;2023-02-02T01:16:25;29.15;;;9.60;;
54935;SDS011;40838;50.676;7.838;2023-02-02T01:18:52;32.08;;;10.20;;
54935;SDS011;40838;50.676;7.838;2023-02-02T01:21:19;23.92;;;8.63;;
54935;SDS011;40838;50.676;7.838;2023-02-02T01:24:04;28.13;;;8.55;;
54935;SDS011;40838;50.676;7.838;2023-02-02T01:26:47;24.42;;;8.77;;
54935;SDS011;40838;50.676;7.838;2023-02-02T01:29:27;25.33;;;9.10;;
54935;SDS011;40838;50.676;7.838;2023-02-02T01:34:51;22.25;;;8.38;;
54935;SDS011;40838;50.676;7.838;2023-02-02T01:37:31;34.75;;;9.32;;
54935;SDS011;40838;50.676;7.838;2023-02-02T01:40:08;28.45;;;7.93;;
54935;SDS011;40838;50.676;7.838;2023-02-02T01:42:37;29.15;;;8.45;;
54935;SDS011;40838;50.676;7.838;2023-02-02T01:45:24;28.40;;;7.88;;
54935;SDS011;40838;50.676;7.838;2023-02-02T01:48:24;29.58;;;8.10;;
54935;SDS011;40838;50.676;7.838;2023-02-02T01:51:00;21.05;;;9.07;;
54935;SDS011;40838;50.676;7.838;2023-02-02T01:53:36;22.90;;;8.55;;
54935;SDS011;40838;50.676;7.838;2023-02-02T01:56:18;26.23;;;9.00;;
54935;SDS011;40838;50.676;7.838;2023-02-02T02:01:45;31.25;;;10.48;;
54935;SDS011;40838;50.676;7.838;2023-02-02T02:04:19;31.10;;;10.68;;
54935;SDS011;40838;50.676;7.838;2023-02-02T02:07:09;37.60;;;11.07;;
54935;SDS011;40838;50.676;7.838;2023-02-02T02:09:38;31.33;;;10.43;;
54935;SDS011;40838;50.676;7.838;2023-02-02T02:12:21;28.40;;;11.20;;
54935;SDS011;40838;50.676;7.838;2023-02-02T02:14:48;33.63;;;11.88;;
54935;SDS011;40838;50.676;7.838;2023-02-02T02:17:47;28.20;;;9.80;;
54935;SDS011;40838;50.676;7.838;2023-02-02T02:20:41;32.38;;;10.85;;
54935;SDS011;40838;50.676;7.838;2023-02-02T02:23:52;35.08;;;11.95;;
54935;SDS011;40838;50.676;7.838;2023-02-02T02:27:36;37.33;;;11.55;;
54935;SDS011;40838;50.676;7.838;2023-02-02T02:30:26;28.23;;;11.43;;
54935;SDS011;40838;50.676;7.838;2023-02-02T02:33:07;26.95;;;10.98;;
54935;SDS011;40838;50.676;7.838;2023-02-02T02:35:44;35.60;;;12.38;;
54935;SDS011;40838;50.676;7.838;2023-02-02T02:38:35;27.13;;;11.57;;
54935;SDS011;40838;50.676;7.838;2023-02-02T02:41:11;26.77;;;9.48;;
54935;SDS011;40838;50.676;7.838;2023-02-02T02:43:46;30.63;;;10.55;;
54935;SDS011;40838;50.676;7.838;2023-02-02T02:46:16;22.60;;;9.20;;
54935;SDS011;40838;50.676;7.838;2023-02-02T02:49:14;21.30;;;9.82;;
54935;SDS011;40838;50.676;7.838;2023-02-02T02:51:44;24.92;;;8.75;;
54935;SDS011;40838;50.676;7.838;2023-02-02T02:54:21;23.10;;;9.52;;
54935;SDS011;40838;50.676;7.838;2023-02-02T02:56:53;21.98;;;9.40;;
54935;SDS011;40838;50.676;7.838;2023-02-02T02:59:33;23.73;;;10.02;;
54935;SDS011;40838;50.676;7.838;2023-02-02T03:02:31;24.67;;;9.60;;
54935;SDS011;40838;50.676;7.838;2023-02-02T03:08:14;20.63;;;10.07;;
54935;SDS011;40838;50.676;7.838;2023-02-02T03:11:00;25.35;;;11.05;;
54935;SDS011;40838;50.676;7.838;2023-02-02T03:13:30;27.00;;;10.70;;
54935;SDS011;40838;50.676;7.838;2023-02-02T03:16:00;18.33;;;10.35;;
54935;SDS011;40838;50.676;7.838;2023-02-02T03:21:12;25.17;;;10.63;;
54935;SDS011;40838;50.676;7.838;2023-02-02T03:23:53;23.65;;;11.18;;
54935;SDS011;40838;50.676;7.838;2023-02-02T03:26:27;20.27;;;10.32;;
54935;SDS011;40838;50.676;7.838;2023-02-02T03:29:08;22.73;;;10.85;;
54935;SDS011;40838;50.676;7.838;2023-02-02T03:31:35;22.15;;;11.45;;
54935;SDS011;40838;50.676;7.838;2023-02-02T03:34:03;26.75;;;11.95;;
54935;SDS011;40838;50.676;7.838;2023-02-02T03:36:36;24.60;;;10.30;;
54935;SDS011;40838;50.676;7.838;2023-02-02T03:39:07;19.65;;;10.52;;
54935;SDS011;40838;50.676;7.838;2023-02-02T03:41:34;27.20;;;11.48;;
54935;SDS011;40838;50.676;7.838;2023-02-02T03:44:04;27.83;;;10.98;;
54935;SDS011;40838;50.676;7.838;2023-02-02T03:46:36;30.55;;;13.23;;
54935;SDS011;40838;50.676;7.838;2023-02-02T03:49:06;28.30;;;14.90;;
54935;SDS011;40838;50.676;7.838;2023-02-02T03:51:58;39.28;;;13.85;;
54935;SDS011;40838;50.676;7.838;2023-02-02T03:57:22;37.55;;;14.07;;
54935;SDS011;40838;50.676;7.838;2023-02-02T03:59:55;32.67;;;13.40;;
54935;SDS011;40838;50.676;7.838;2023-02-02T04:02:22;30.25;;;13.40;;
54935;SDS011;40838;50.676;7.838;2023-02-02T04:04:51;31.65;;;13.00;;
54935;SDS011;40838;50.676;7.838;2023-02-02T04:07:22;34.25;;;13.02;;
54935;SDS011;40838;50.676;7.838;2023-02-02T04:09:49;36.63;;;13.65;;
54935;SDS011;40838;50.676;7.838;2023-02-02T04:12:16;35.38;;;12.30;;
54935;SDS011;40838;50.676;7.838;2023-02-02T04:14:43;26.17;;;11.10;;
54935;SDS011;40838;50.676;7.838;2023-02-02T04:17:10;28.33;;;12.00;;
54935;SDS011;40838;50.676;7.838;2023-02-02T04:19:37;32.35;;;11.63;;
54935;SDS011;40838;50.676;7.838;2023-02-02T04:22:14;33.40;;;12.40;;
54935;SDS011;40838;50.676;7.838;2023-02-02T04:24:44;24.98;;;11.35;;
54935;SDS011;40838;50.676;7.838;2023-02-02T04:27:12;23.23;;;12.20;;
54935;SDS011;40838;50.676;7.838;2023-02-02T04:29:54;29.48;;;12.57;;
54935;SDS011;40838;50.676;7.838;2023-02-02T04:32:23;33.25;;;12.52;;
54935;SDS011;40838;50.676;7.838;2023-02-02T04:35:16;31.55;;;13.20;;
54935;SDS011;40838;50.676;7.838;2023-02-02T04:37:43;29.02;;;12.88;;
54935;SDS011;40838;50.676;7.838;2023-02-02T04:40:14;27.52;;;11.18;;
54935;SDS011;40838;50.676;7.838;2023-02-02T04:42:41;23.67;;;10.82;;
54935;SDS011;40838;50.676;7.838;2023-02-02T04:45:24;24.25;;;10.73;;
54935;SDS011;40838;50.676;7.838;2023-02-02T04:47:50;26.60;;;11.27;;
54935;SDS011;40838;50.676;7.838;2023-02-02T04:50:18;31.40;;;11.00;;
54935;SDS011;40838;50.676;7.838;2023-02-02T04:52:48;36.08;;;11.43;;
54935;SDS011;40838;50.676;7.838;2023-02-02T04:55:16;26.00;;;11.77;;
54935;SDS011;40838;50.676;7.838;2023-02-02T04:58:00;22.17;;;10.00;;
54935;SDS011;40838;50.676;7.838;2023-02-02T05:00:27;23.98;;;10.55;;
54935;SDS011;40838;50.676;7.838;2023-02-02T05:02:56;22.58;;;9.38;;
54935;SDS011;40838;50.676;7.838;2023-02-02T05:05:26;20.88;;;10.40;;
54935;SDS011;40838;50.676;7.838;2023-02-02T05:07:55;23.50;;;9.98;;
54935;SDS011;40838;50.676;7.838;2023-02-02T05:10:26;21.02;;;9.80;;
54935;SDS011;40838;50.676;7.838;2023-02-02T05:12:54;21.80;;;10.50;;
54935;SDS011;40838;50.676;7.838;2023-02-02T05:15:23;28.95;;;9.90;;
54935;SDS011;40838;50.676;7.838;2023-02-02T05:17:50;27.15;;;10.43;;
54935;SDS011;40838;50.676;7.838;2023-02-02T05:20:17;24.73;;;10.85;;
54935;SDS011;40838;50.676;7.838;2023-02-02T05:22:58;30.70;;;10.68;;
54935;SDS011;40838;50.676;7.838;2023-02-02T05:25:42;26.17;;;11.07;;
54935;SDS011;40838;50.676;7.838;2023-02-02T05:28:09;28.85;;;10.60;;
54935;SDS011;40838;50.676;7.838;2023-02-02T05:30:44;27.17;;;11.30;;
54935;SDS011;40838;50.676;7.838;2023-02-02T05:33:10;26.73;;;12.73;;
54935;SDS011;40838;50.676;7.838;2023-02-02T05:35:39;25.42;;;10.88;;
54935;SDS011;40838;50.676;7.838;2023-02-02T05:38:06;34.58;;;11.65;;
54935;SDS011;40838;50.676;7.838;2023-02-02T05:40:37;31.48;;;11.60;;
54935;SDS011;40838;50.676;7.838;2023-02-02T05:45:38;28.80;;;10.57;;
54935;SDS011;40838;50.676;7.838;2023-02-02T05:48:05;28.45;;;10.13;;
54935;SDS011;40838;50.676;7.838;2023-02-02T05:50:42;21.90;;;10.18;;
54935;SDS011;40838;50.676;7.838;2023-02-02T05:53:13;24.80;;;10.68;;
54935;SDS011;40838;50.676;7.838;2023-02-02T05:55:44;29.48;;;10.40;;
54935;SDS011;40838;50.676;7.838;2023-02-02T05:58:18;28.52;;;10.88;;
54935;SDS011;40838;50.676;7.838;2023-02-02T06:00:47;20.88;;;9.93;;
54935;SDS011;40838;50.676;7.838;2023-02-02T06:03:16;27.85;;;11.30;;
54935;SDS011;40838;50.676;7.838;2023-02-02T06:05:47;36.00;;;12.05;;
54935;SDS011;40838;50.676;7.838;2023-02-02T06:08:20;32.80;;;12.07;;
54935;SDS011;40838;50.676;7.838;2023-02-02T06:10:47;28.25;;;11.98;;
54935;SDS011;40838;50.676;7.838;2023-02-02T06:13:14;34.13;;;12.07;;
54935;SDS011;40838;50.676;7.838;2023-02-02T06:15:44;40.70;;;13.73;;
54935;SDS011;40838;50.676;7.838;2023-02-02T06:18:11;31.13;;;13.35;;
54935;SDS011;40838;50.676;7.838;2023-02-02T06:21:09;41.45;;;14.25;;
54935;SDS011;40838;50.676;7.838;2023-02-02T06:23:37;38.85;;;14.80;;
54935;SDS011;40838;50.676;7.838;2023-02-02T06:26:12;30.27;;;12.60;;
54935;SDS011;40838;50.676;7.838;2023-02-02T06:28:40;39.35;;;14.55;;
54935;SDS011;40838;50.676;7.838;2023-02-02T06:31:23;53.75;;;14.80;;
54935;SDS011;40838;50.676;7.838;2023-02-02T06:33:57;32.65;;;14.75;;
54935;SDS011;40838;50.676;7.838;2023-02-02T06:36:27;34.55;;;13.90;;
54935;SDS011;40838;50.676;7.838;2023-02-02T06:38:55;40.75;;;15.77;;
54935;SDS011;40838;50.676;7.838;2023-02-02T06:41:35;34.58;;;13.38;;
54935;SDS011;40838;50.676;7.838;2023-02-02T06:44:08;33.45;;;14.35;;
54935;SDS011;40838;50.676;7.838;2023-02-02T06:46:37;35.25;;;13.45;;
54935;SDS011;40838;50.676;7.838;2023-02-02T06:49:11;27.65;;;13.38;;
54935;SDS011;40838;50.676;7.838;2023-02-02T06:51:41;26.00;;;12.60;;
54935;SDS011;40838;50.676;7.838;2023-02-02T06:54:21;34.28;;;12.38;;
54935;SDS011;40838;50.676;7.838;2023-02-02T06:56:50;28.95;;;12.93;;
54935;SDS011;40838;50.676;7.838;2023-02-02T06:59:16;34.72;;;14.20;;
54935;SDS011;40838;50.676;7.838;2023-02-02T07:04:32;38.55;;;14.43;;
54935;SDS011;40838;50.676;7.838;2023-02-02T07:06:58;33.88;;;14.18;;
54935;SDS011;40838;50.676;7.838;2023-02-02T07:09:37;34.90;;;12.93;;
54935;SDS011;40838;50.676;7.838;2023-02-02T07:12:06;30.75;;;13.00;;
54935;SDS011;40838;50.676;7.838;2023-02-02T07:17:17;30.20;;;13.07;;
54935;SDS011;40838;50.676;7.838;2023-02-02T07:23:01;31.55;;;13.30;;
54935;SDS011;40838;50.676;7.838;2023-02-02T07:25:30;38.65;;;13.90;;
54935;SDS011;40838;50.676;7.838;2023-02-02T07:28:01;34.58;;;13.95;;
54935;SDS011;40838;50.676;7.838;2023-02-02T07:30:31;31.55;;;13.07;;
54935;SDS011;40838;50.676;7.838;2023-02-02T07:33:02;31.73;;;12.40;;
54935;SDS011;40838;50.676;7.838;2023-02-02T07:35:39;29.90;;;12.45;;
54935;SDS011;40838;50.676;7.838;2023-02-02T07:38:05;31.23;;;12.57;;
54935;SDS011;40838;50.676;7.838;2023-02-02T07:40:44;30.77;;;13.40;;
54935;SDS011;40838;50.676;7.838;2023-02-02T07:43:11;25.75;;;10.48;;
54935;SDS011;40838;50.676;7.838;2023-02-02T07:45:39;34.60;;;13.95;;
54935;SDS011;40838;50.676;7.838;2023-02-02T07:48:25;28.92;;;11.90;;
54935;SDS011;40838;50.676;7.838;2023-02-02T07:54:00;26.23;;;12.02;;
54935;SDS011;40838;50.676;7.838;2023-02-02T07:56:38;25.48;;;11.05;;
54935;SDS011;40838;50.676;7.838;2023-02-02T07:59:08;31.70;;;13.85;;
54935;SDS011;40838;50.676;7.838;2023-02-02T08:01:46;25.75;;;11.90;;
54935;SDS011;40838;50.676;7.838;2023-02-02T08:04:17;28.33;;;12.82;;
54935;SDS011;40838;50.676;7.838;2023-02-02T08:06:44;31.08;;;12.57;;
54935;SDS011;40838;50.676;7.838;2023-02-02T08:12:17;27.08;;;11.18;;
54935;SDS011;40838;50.676;7.838;2023-02-02T08:14:54;32.92;;;11.13;;
54935;SDS011;40838;50.676;7.838;2023-02-02T08:17:22;30.58;;;11.52;;
54935;SDS011;40838;50.676;7.838;2023-02-02T08:19:51;29.73;;;13.40;;
54935;SDS011;40838;50.676;7.838;2023-02-02T08:22:31;29.85;;;11.32;;
54935;SDS011;40838;50.676;7.838;2023-02-02T08:24:58;26.85;;;11.85;;
54935;SDS011;40838;50.676;7.838;2023-02-02T08:27:32;27.10;;;11.55;;
54935;SDS011;40838;50.676;7.838;2023-02-02T08:30:00;24.65;;;10.95;;
54935;SDS011;40838;50.676;7.838;2023-02-02T08:32:29;22.88;;;11.80;;
54935;SDS011;40838;50.676;7.838;2023-02-02T08:35:02;27.55;;;12.38;;
54935;SDS011;40838;50.676;7.838;2023-02-02T08:37:49;28.77;;;13.10;;
54935;SDS011;40838;50.676;7.838;2023-02-02T08:40:16;40.22;;;12.00;;
54935;SDS011;40838;50.676;7.838;2023-02-02T08:43:14;38.78;;;12.68;;
54935;SDS011;40838;50.676;7.838;2023-02-02T08:46:19;30.35;;;11.85;;
54935;SDS011;40838;50.676;7.838;2023-02-02T08:48:41;34.95;;;11.90;;
54935;SDS011;40838;50.676;7.838;2023-02-02T08:51:13;23.60;;;11.73;;
54935;SDS011;40838;50.676;7.838;2023-02-02T08:53:45;28.55;;;11.30;;
54935;SDS011;40838;50.676;7.838;2023-02-02T08:56:14;30.42;;;11.75;;
54935;SDS011;40838;50.676;7.838;2023-02-02T08:58:46;27.17;;;11.70;;
54935;SDS011;40838;50.676;7.838;2023-02-02T09:04:13;31.13;;;11.68;;
54935;SDS011;40838;50.676;7.838;2023-02-02T09:09:43;23.23;;;10.27;;
54935;SDS011;40838;50.676;7.838;2023-02-02T09:12:20;22.85;;;11.10;;
54935;SDS011;40838;50.676;7.838;2023-02-02T09:14:50;22.35;;;11.43;;
54935;SDS011;40838;50.676;7.838;2023-02-02T09:17:18;22.17;;;11.77;;
54935;SDS011;40838;50.676;7.838;2023-02-02T09:19:55;24.15;;;10.45;;
54935;SDS011;40838;50.676;7.838;2023-02-02T09:22:23;28.92;;;11.18;;
54935;SDS011;40838;50.676;7.838;2023-02-02T09:24:51;21.73;;;9.93;;
54935;SDS011;40838;50.676;7.838;2023-02-02T09:27:26;20.27;;;10.23;;
54935;SDS011;40838;50.676;7.838;2023-02-02T09:30:04;32.30;;;10.20;;
54935;SDS011;40838;50.676;7.838;2023-02-02T09:32:33;25.42;;;11.27;;
54935;SDS011;40838;50.676;7.838;2023-02-02T09:35:14;27.33;;;12.13;;
54935;SDS011;40838;50.676;7.838;2023-02-02T09:37:41;24.20;;;10.93;;
54935;SDS011;40838;50.676;7.838;2023-02-02T09:40:14;27.50;;;12.60;;
54935;SDS011;40838;50.676;7.838;2023-02-02T09:43:03;22.65;;;10.50;;
54935;SDS011;40838;50.676;7.838;2023-02-02T09:45:44;27.35;;;11.52;;
54935;SDS011;40838;50.676;7.838;2023-02-02T09:48:34;21.75;;;11.75;;
54935;SDS011;40838;50.676;7.838;2023-02-02T09:51:09;22.27;;;11.65;;
54935;SDS011;40838;50.676;7.838;2023-02-02T09:54:00;23.33;;;12.20;;
54935;SDS011;40838;50.676;7.838;2023-02-02T09:56:33;22.60;;;10.68;;
54935;SDS011;40838;50.676;7.838;2023-02-02T09:59:09;18.75;;;10.32;;
54935;SDS011;40838;50.676;7.838;2023-02-02T10:01:42;20.98;;;10.52;;
54935;SDS011;40838;50.676;7.838;2023-02-02T10:04:12;20.80;;;9.35;;
54935;SDS011;40838;50.676;7.838;2023-02-02T10:06:43;22.48;;;10.82;;
54935;SDS011;40838;50.676;7.838;2023-02-02T10:09:30;21.02;;;10.85;;
54935;SDS011;40838;50.676;7.838;2023-02-02T10:12:16;18.10;;;10.07;;
54935;SDS011;40838;50.676;7.838;2023-02-02T10:17:57;21.52;;;11.82;;
54935;SDS011;40838;50.676;7.838;2023-02-02T10:20:32;32.78;;;12.65;;
54935;SDS011;40838;50.676;7.838;2023-02-02T10:23:12;35.75;;;12.77;;
54935;SDS011;40838;50.676;7.838;2023-02-02T10:25:49;34.30;;;12.93;;
54935;SDS011;40838;50.676;7.838;2023-02-02T10:28:32;29.52;;;13.48;;
54935;SDS011;40838;50.676;7.838;2023-02-02T10:31:31;34.28;;;14.68;;
54935;SDS011;40838;50.676;7.838;2023-02-02T10:34:25;27.60;;;13.55;;
54935;SDS011;40838;50.676;7.838;2023-02-02T10:37:10;25.02;;;13.63;;
54935;SDS011;40838;50.676;7.838;2023-02-02T10:43:11;41.10;;;13.43;;
54935;SDS011;40838;50.676;7.838;2023-02-02T10:46:08;25.63;;;11.95;;
54935;SDS011;40838;50.676;7.838;2023-02-02T10:48:40;26.13;;;11.75;;
54935;SDS011;40838;50.676;7.838;2023-02-02T10:51:11;24.90;;;11.88;;
54935;SDS011;40838;50.676;7.838;2023-02-02T10:53:56;21.30;;;10.82;;
54935;SDS011;40838;50.676;7.838;2023-02-02T10:56:36;19.85;;;9.48;;
54935;SDS011;40838;50.676;7.838;2023-02-02T10:59:20;24.88;;;10.82;;
54935;SDS011;40838;50.676;7.838;2023-02-02T11:02:07;22.23;;;9.25;;
54935;SDS011;40838;50.676;7.838;2023-02-02T11:04:42;18.55;;;9.80;;
54935;SDS011;40838;50.676;7.838;2023-02-02T11:07:28;21.27;;;10.27;;
54935;SDS011;40838;50.676;7.838;2023-02-02T11:09:55;17.15;;;8.60;;
54935;SDS011;40838;50.676;7.838;2023-02-02T11:12:36;21.30;;;9.52;;
54935;SDS011;40838;50.676;7.838;2023-02-02T11:15:21;21.50;;;10.60;;
54935;SDS011;40838;50.676;7.838;2023-02-02T11:17:54;27.02;;;11.55;;
54935;SDS011;40838;50.676;7.838;2023-02-02T11:20:22;23.45;;;11.10;;
54935;SDS011;40838;50.676;7.838;2023-02-02T11:22:59;25.85;;;10.88;;
54935;SDS011;40838;50.676;7.838;2023-02-02T11:25:38;26.95;;;11.40;;
54935;SDS011;40838;50.676;7.838;2023-02-02T11:28:09;28.20;;;12.02;;
54935;SDS011;40838;50.676;7.838;2023-02-02T11:30:44;23.08;;;11.32;;
54935;SDS011;40838;50.676;7.838;2023-02-02T11:33:26;27.77;;;13.07;;
54935;SDS011;40838;50.676;7.838;2023-02-02T11:36:16;24.40;;;14.25;;
54935;SDS011;40838;50.676;7.838;2023-02-02T11:39:09;27.48;;;13.85;;
54935;SDS011;40838;50.676;7.838;2023-02-02T11:41:42;27.77;;;13.45;;
54935;SDS011;40838;50.676;7.838;2023-02-02T11:44:23;27.85;;;14.43;;
54935;SDS011;40838;50.676;7.838;2023-02-02T11:46:54;35.28;;;14.05;;
54935;SDS011;40838;50.676;7.838;2023-02-02T11:49:23;32.78;;;13.45;;
54935;SDS011;40838;50.676;7.838;2023-02-02T11:51:58;31.83;;;14.77;;
54935;SDS011;40838;50.676;7.838;2023-02-02T11:54:28;33.30;;;14.98;;
54935;SDS011;40838;50.676;7.838;2023-02-02T11:56:59;29.83;;;14.38;;
54935;SDS011;40838;50.676;7.838;2023-02-02T11:59:46;27.83;;;14.73;;
54935;SDS011;40838;50.676;7.838;2023-02-02T12:02:28;31.33;;;14.93;;
54935;SDS011;40838;50.676;7.838;2023-02-02T12:05:13;31.35;;;13.60;;
54935;SDS011;40838;50.676;7.838;2023-02-02T12:07:58;29.17;;;14.48;;
54935;SDS011;40838;50.676;7.838;2023-02-02T12:10:27;36.78;;;16.27;;
54935;SDS011;40838;50.676;7.838;2023-02-02T12:13:06;35.70;;;16.02;;
54935;SDS011;40838;50.676;7.838;2023-02-02T12:15:42;32.25;;;14.60;;
54935;SDS011;40838;50.676;7.838;2023-02-02T12:18:30;31.42;;;14.98;;
54935;SDS011;40838;50.676;7.838;2023-02-02T12:21:07;34.55;;;16.20;;
54935;SDS011;40838;50.676;7.838;2023-02-02T12:23:54;31.63;;;15.90;;
54935;SDS011;40838;50.676;7.838;2023-02-02T12:27:03;30.40;;;14.75;;
54935;SDS011;40838;50.676;7.838;2023-02-02T12:29:50;29.40;;;15.95;;
54935;SDS011;40838;50.676;7.838;2023-02-02T12:32:43;28.42;;;15.52;;
54935;SDS011;40838;50.676;7.838;2023-02-02T12:35:28;34.83;;;15.48;;
54935;SDS011;40838;50.676;7.838;2023-02-02T12:38:17;34.95;;;16.42;;
54935;SDS011;40838;50.676;7.838;2023-02-02T12:41:00;33.25;;;16.23;;
54935;SDS011;40838;50.676;7.838;2023-02-02T12:43:51;36.63;;;17.45;;
54935;SDS011;40838;50.676;7.838;2023-02-02T12:46:39;39.85;;;17.88;;
54935;SDS011;40838;50.676;7.838;2023-02-02T12:49:46;34.63;;;18.00;;
54935;SDS011;40838;50.676;7.838;2023-02-02T12:52:31;32.63;;;16.98;;
54935;SDS011;40838;50.676;7.838;2023-02-02T12:55:35;33.85;;;17.10;;
54935;SDS011;40838;50.676;7.838;2023-02-02T12:58:10;31.67;;;16.48;;
54935;SDS011;40838;50.676;7.838;2023-02-02T13:00:59;35.20;;;16.35;;
54935;SDS011;40838;50.676;7.838;2023-02-02T13:03:37;27.73;;;16.02;;
54935;SDS011;40838;50.676;7.838;2023-02-02T13:09:30;30.05;;;15.65;;
54935;SDS011;40838;50.676;7.838;2023-02-02T13:12:16;24.20;;;16.10;;
54935;SDS011;40838;50.676;7.838;2023-02-02T13:14:48;27.95;;;15.32;;
54935;SDS011;40838;50.676;7.838;2023-02-02T13:17:27;39.72;;;15.75;;
54935;SDS011;40838;50.676;7.838;2023-02-02T13:20:02;37.97;;;17.70;;
54935;SDS011;40838;50.676;7.838;2023-02-02T13:22:39;28.58;;;15.88;;
54935;SDS011;40838;50.676;7.838;2023-02-02T13:25:15;33.47;;;16.48;;
54935;SDS011;40838;50.676;7.838;2023-02-02T13:27:50;28.90;;;15.88;;
54935;SDS011;40838;50.676;7.838;2023-02-02T13:30:21;25.80;;;15.02;;
54935;SDS011;40838;50.676;7.838;2023-02-02T13:32:57;31.85;;;13.85;;
54935;SDS011;40838;50.676;7.838;2023-02-02T13:35:34;29.40;;;15.15;;
54935;SDS011;40838;50.676;7.838;2023-02-02T13:38:20;28.05;;;13.55;;
54935;SDS011;40838;50.676;7.838;2023-02-02T13:41:04;28.95;;;14.52;;
54935;SDS011;40838;50.676;7.838;2023-02-02T13:43:38;26.77;;;14.55;;
54935;SDS011;40838;50.676;7.838;2023-02-02T13:46:16;29.77;;;13.30;;
54935;SDS011;40838;50.676;7.838;2023-02-02T13:48:55;24.98;;;14.00;;
54935;SDS011;40838;50.676;7.838;2023-02-02T13:51:47;26.13;;;14.60;;
54935;SDS011;40838;50.676;7.838;2023-02-02T13:57:45;26.27;;;13.55;;
54935;SDS011;40838;50.676;7.838;2023-02-02T14:00:36;29.90;;;14.05;;
54935;SDS011;40838;50.676;7.838;2023-02-02T14:03:25;33.63;;;13.32;;
54935;SDS011;40838;50.676;7.838;2023-02-02T14:06:08;25.45;;;13.15;;
54935;SDS011;40838;50.676;7.838;2023-02-02T14:08:44;30.80;;;13.65;;
54935;SDS011;40838;50.676;7.838;2023-02-02T14:11:15;27.75;;;12.80;;
54935;SDS011;40838;50.676;7.838;2023-02-02T14:13:46;34.75;;;14.95;;
54935;SDS011;40838;50.676;7.838;2023-02-02T14:16:47;32.60;;;12.20;;
54935;SDS011;40838;50.676;7.838;2023-02-02T14:25:46;32.58;;;11.82;;
54935;SDS011;40838;50.676;7.838;2023-02-02T14:34:28;23.20;;;10.85;;
54935;SDS011;40838;50.676;7.838;2023-02-02T14:40:26;28.17;;;11.80;;
54935;SDS011;40838;50.676;7.838;2023-02-02T14:43:32;23.67;;;10.48;;
54935;SDS011;40838;50.676;7.838;2023-02-02T14:46:24;22.48;;;10.68;;
54935;SDS011;40838;50.676;7.838;2023-02-02T14:52:18;30.73;;;12.07;;
54935;SDS011;40838;50.676;7.838;2023-02-02T14:54:53;26.67;;;10.80;;
54935;SDS011;40838;50.676;7.838;2023-02-02T14:57:24;20.52;;;10.60;;
54935;SDS011;40838;50.676;7.838;2023-02-02T14:59:55;21.48;;;10.25;;
54935;SDS011;40838;50.676;7.838;2023-02-02T15:02:29;15.05;;;8.88;;
54935;SDS011;40838;50.676;7.838;2023-02-02T15:08:23;17.67;;;9.35;;
54935;SDS011;40838;50.676;7.838;2023-02-02T15:10:56;16.85;;;9.30;;
54935;SDS011;40838;50.676;7.838;2023-02-02T15:13:57;17.13;;;8.90;;
54935;SDS011;40838;50.676;7.838;2023-02-02T15:16:34;18.98;;;9.00;;
54935;SDS011;40838;50.676;7.838;2023-02-02T15:19:07;57.47;;;28.45;;
54935;SDS011;40838;50.676;7.838;2023-02-02T15:21:45;48.95;;;23.35;;
54935;SDS011;40838;50.676;7.838;2023-02-02T15:24:23;47.40;;;23.17;;
54935;SDS011;40838;50.676;7.838;2023-02-02T15:26:57;49.20;;;26.02;;
54935;SDS011;40838;50.676;7.838;2023-02-02T15:29:36;27.58;;;12.63;;
54935;SDS011;40838;50.676;7.838;2023-02-02T15:35:22;62.13;;;32.97;;
54935;SDS011;40838;50.676;7.838;2023-02-02T15:38:29;109.63;;;60.90;;
54935;SDS011;40838;50.676;7.838;2023-02-02T15:41:16;25.13;;;14.30;;
54935;SDS011;40838;50.676;7.838;2023-02-02T15:44:12;24.83;;;12.75;;
54935;SDS011;40838;50.676;7.838;2023-02-02T15:46:59;20.38;;;9.05;;
54935;SDS011;40838;50.676;7.838;2023-02-02T15:49:38;15.40;;;9.52;;
54935;SDS011;40838;50.676;7.838;2023-02-02T15:52:10;17.60;;;7.78;;
54935;SDS011;40838;50.676;7.838;2023-02-02T15:54:48;18.92;;;6.95;;
54935;SDS011;40838;50.676;7.838;2023-02-02T15:57:36;16.95;;;6.93;;
54935;SDS011;40838;50.676;7.838;2023-02-02T16:03:11;14.90;;;6.20;;
54935;SDS011;40838;50.676;7.838;2023-02-02T16:05:52;12.98;;;5.15;;
54935;SDS011;40838;50.676;7.838;2023-02-02T16:08:23;13.88;;;5.53;;
54935;SDS011;40838;50.676;7.838;2023-02-02T16:11:00;13.20;;;5.18;;
54935;SDS011;40838;50.676;7.838;2023-02-02T16:13:55;15.43;;;6.35;;
54935;SDS011;40838;50.676;7.838;2023-02-02T16:16:26;13.35;;;6.32;;
54935;SDS011;40838;50.676;7.838;2023-02-02T16:19:03;15.57;;;5.97;;
54935;SDS011;40838;50.676;7.838;2023-02-02T16:21:37;11.98;;;5.05;;
54935;SDS011;40838;50.676;7.838;2023-02-02T16:24:22;15.25;;;4.82;;
54935;SDS011;40838;50.676;7.838;2023-02-02T16:26:59;16.40;;;4.10;;
54935;SDS011;40838;50.676;7.838;2023-02-02T16:33:29;17.55;;;5.03;;
54935;SDS011;40838;50.676;7.838;2023-02-02T16:36:00;16.58;;;4.65;;
54935;SDS011;40838;50.676;7.838;2023-02-02T16:38:29;12.63;;;4.45;;
54935;SDS011;40838;50.676;7.838;2023-02-02T16:41:01;11.38;;;4.05;;
54935;SDS011;40838;50.676;7.838;2023-02-02T16:43:30;11.30;;;4.68;;
54935;SDS011;40838;50.676;7.838;2023-02-02T16:45:58;14.40;;;4.30;;
54935;SDS011;40838;50.676;7.838;2023-02-02T16:48:31;11.13;;;4.20;;
54935;SDS011;40838;50.676;7.838;2023-02-02T16:51:04;14.05;;;5.18;;
54935;SDS011;40838;50.676;7.838;2023-02-02T16:53:34;18.83;;;4.95;;